Time;durP1;ratioP1;P1;durP2;ratioP2;P2;SDS_P1;SDS_P2;PMS_P1;PMS_P2;Temp;Humidity;BMP_temperature;BMP_pressure;BME280_temperature;BME280_humidity;BME280_pressure;Samples;Min_cycle;Max_cycle;Signal;HPM_P1;HPM_P2
2020/12/18 00:00:33;;;;;;;52.67;16.25;;;7.00;99.90;;;;;;5070617;28;20024;-79
2020/12/18 00:02:59;;;;;;;59.17;17.45;;;7.10;99.90;;;;;;5070633;28;20039;-79
2020/12/18 00:05:24;;;;;;;66.60;15.88;;;7.00;99.90;;;;;;5069377;28;20020;-79
2020/12/18 00:07:50;;;;;;;71.80;17.13;;;7.00;99.90;;;;;;5051706;28;20029;-79
2020/12/18 00:10:16;;;;;;;61.10;17.27;;;7.10;99.90;;;;;;5051802;28;20036;-79
2020/12/18 00:12:41;;;;;;;78.78;16.75;;;7.20;99.90;;;;;;5050501;28;20053;-79
2020/12/18 00:15:07;;;;;;;79.53;17.10;;;7.20;99.90;;;;;;5050314;28;20511;-79
2020/12/18 00:17:33;;;;;;;49.25;14.73;;;7.20;99.90;;;;;;5066741;28;20373;-79
2020/12/18 00:19:58;;;;;;;65.78;13.55;;;7.20;99.90;;;;;;5070486;28;20025;-79
2020/12/18 00:22:24;;;;;;;54.40;11.85;;;7.20;99.90;;;;;;5071475;28;20028;-79
2020/12/18 00:24:50;;;;;;;39.47;11.20;;;7.40;99.90;;;;;;5071410;28;20033;-79
2020/12/18 00:27:15;;;;;;;69.35;12.45;;;7.40;99.90;;;;;;5059624;28;20059;-80
2020/12/18 00:29:41;;;;;;;45.40;10.18;;;7.40;99.90;;;;;;5051520;28;20122;-79
2020/12/18 00:32:07;;;;;;;43.83;8.35;;;7.60;99.90;;;;;;5050331;28;20400;-79
2020/12/18 00:34:32;;;;;;;34.92;9.63;;;7.60;99.90;;;;;;5051388;28;20021;-79
2020/12/18 00:36:58;;;;;;;32.33;6.88;;;7.60;99.90;;;;;;5066165;28;20029;-80
2020/12/18 00:39:24;;;;;;;31.00;8.55;;;7.60;99.90;;;;;;5071390;28;20028;-80
2020/12/18 00:41:53;;;;;;;35.88;10.02;;;7.70;99.90;;;;;;5069851;28;20032;-79
2020/12/18 00:44:20;;;;;;;41.08;9.52;;;7.70;99.90;;;;;;5071379;28;20025;-80
2020/12/18 00:46:46;;;;;;;46.92;11.07;;;7.70;99.90;;;;;;5060951;28;20033;-79
2020/12/18 00:49:11;;;;;;;39.67;9.43;;;7.80;99.90;;;;;;5049940;28;20539;-79
2020/12/18 00:51:37;;;;;;;65.43;9.07;;;7.80;99.90;;;;;;5050080;28;20035;-79
2020/12/18 00:54:03;;;;;;;30.73;9.05;;;7.80;99.90;;;;;;5051255;28;20079;-79
2020/12/18 00:56:28;;;;;;;39.13;9.35;;;7.80;99.90;;;;;;5054876;28;20115;-79
2020/12/18 00:58:54;;;;;;;33.50;9.05;;;7.80;99.90;;;;;;5071308;28;20070;-79
2020/12/18 01:01:19;;;;;;;37.28;9.70;;;7.90;99.90;;;;;;5070174;28;20061;-79
2020/12/18 01:03:45;;;;;;;52.92;9.35;;;7.70;99.90;;;;;;5071044;28;20059;-80
2020/12/18 01:06:11;;;;;;;39.20;10.32;;;7.90;99.90;;;;;;5062673;28;20029;-79
2020/12/18 01:08:37;;;;;;;44.47;9.32;;;7.90;99.90;;;;;;5051189;28;20037;-79
2020/12/18 01:11:05;;;;;;;55.78;11.18;;;7.90;99.90;;;;;;5054629;28;20021;-79
2020/12/18 01:13:30;;;;;;;42.83;10.35;;;7.90;99.90;;;;;;5054950;28;20032;-79
2020/12/18 01:15:56;;;;;;;47.42;10.30;;;7.90;99.90;;;;;;5057610;28;20025;-79
2020/12/18 01:18:24;;;;;;;68.53;11.45;;;7.90;99.90;;;;;;5073635;28;20119;-79
2020/12/18 01:20:50;;;;;;;34.80;10.20;;;7.90;99.90;;;;;;5071906;28;20032;-79
2020/12/18 01:23:15;;;;;;;44.60;11.40;;;7.90;99.90;;;;;;5073582;28;20033;-80
2020/12/18 01:25:41;;;;;;;69.40;15.02;;;7.90;99.90;;;;;;5074591;28;20100;-79
2020/12/18 01:28:06;;;;;;;50.25;15.70;;;7.80;99.90;;;;;;5073314;28;20032;-79
2020/12/18 01:30:32;;;;;;;62.10;15.30;;;7.80;99.90;;;;;;5073410;28;20024;-79
2020/12/18 01:32:57;;;;;;;54.55;14.73;;;7.80;99.90;;;;;;5055244;28;20022;-79
2020/12/18 01:35:23;;;;;;;64.15;15.82;;;7.80;99.90;;;;;;5054384;28;20033;-79
2020/12/18 01:37:49;;;;;;;56.80;14.52;;;7.80;99.90;;;;;;5054462;28;20087;-80
2020/12/18 01:40:14;;;;;;;67.32;14.35;;;7.80;99.90;;;;;;5053358;28;20029;-80
2020/12/18 01:42:40;;;;;;;59.40;17.42;;;7.90;99.90;;;;;;5066308;28;20032;-79
2020/12/18 01:45:05;;;;;;;52.72;17.15;;;7.80;99.90;;;;;;5074146;28;20029;-80
2020/12/18 01:47:32;;;;;;;65.50;16.00;;;7.80;99.90;;;;;;5073004;28;20511;-80
2020/12/18 01:49:58;;;;;;;90.13;18.60;;;7.80;99.90;;;;;;5074349;28;20031;-79
2020/12/18 01:52:24;;;;;;;62.40;17.77;;;7.70;99.90;;;;;;5055663;28;20573;-80
2020/12/18 01:54:57;;;;;;;82.35;22.80;;;7.70;99.90;;;;;;5053980;28;20025;-80
2020/12/18 01:57:25;;;;;;;88.60;22.55;;;7.60;99.90;;;;;;5052938;28;20021;-79
2020/12/18 01:59:52;;;;;;;54.63;19.75;;;7.70;99.90;;;;;;5052728;28;20033;-79
2020/12/18 02:02:18;;;;;;;84.15;22.52;;;7.60;99.90;;;;;;5068342;28;20028;-79
2020/12/18 02:04:45;;;;;;;69.60;25.10;;;7.70;99.90;;;;;;5073832;28;20028;-79
2020/12/18 02:07:12;;;;;;;68.47;23.77;;;7.70;99.90;;;;;;5055910;28;20143;-79
2020/12/18 02:09:39;;;;;;;79.25;26.85;;;7.70;99.90;;;;;;5052592;28;20025;-80
2020/12/18 02:12:05;;;;;;;70.35;26.35;;;7.70;99.90;;;;;;5063203;28;20393;-79
2020/12/18 02:14:31;;;;;;;69.93;26.98;;;7.70;99.90;;;;;;5072429;28;20081;-79
2020/12/18 02:16:56;;;;;;;103.03;30.33;;;7.70;99.90;;;;;;5073568;28;20032;-79
2020/12/18 02:19:26;;;;;;;77.57;26.65;;;7.70;99.90;;;;;;5072603;28;20032;-79
2020/12/18 02:21:51;;;;;;;81.57;27.15;;;7.70;99.90;;;;;;5072261;28;20035;-79
2020/12/18 02:24:40;;;;;;;65.25;25.55;;;7.70;99.90;;;;;;5073398;28;20020;-79
2020/12/18 02:27:05;;;;;;;85.50;30.27;;;7.70;99.90;;;;;;5072348;28;20082;-79
2020/12/18 02:29:31;;;;;;;87.35;30.85;;;7.70;99.90;;;;;;5073441;28;20033;-79
2020/12/18 02:31:57;;;;;;;91.57;29.25;;;7.70;99.90;;;;;;5061505;28;20028;-79
2020/12/18 02:34:24;;;;;;;75.22;29.08;;;7.70;99.90;;;;;;5051975;28;20021;-79
2020/12/18 02:36:49;;;;;;;97.28;32.58;;;7.70;99.90;;;;;;5053275;28;20028;-80
2020/12/18 02:39:15;;;;;;;86.63;34.92;;;7.70;99.90;;;;;;5052039;28;20087;-80
2020/12/18 02:41:40;;;;;;;83.95;32.47;;;7.70;99.90;;;;;;5058612;28;20075;-79
2020/12/18 02:44:06;;;;;;;96.97;34.80;;;7.70;99.90;;;;;;5070181;28;20020;-79
2020/12/18 02:46:32;;;;;;;72.13;35.55;;;7.70;99.90;;;;;;5073151;28;20032;-79
2020/12/18 02:48:57;;;;;;;93.30;35.63;;;7.60;99.90;;;;;;5071780;28;20073;-79
2020/12/18 02:51:23;;;;;;;91.38;35.38;;;7.60;99.90;;;;;;5062987;28;20029;-79
2020/12/18 02:53:48;;;;;;;92.45;37.25;;;7.60;99.90;;;;;;5052832;28;20027;-79
2020/12/18 02:56:29;;;;;;;84.40;35.15;;;7.60;99.90;;;;;;5051745;28;20025;-80
2020/12/18 02:58:54;;;;;;;77.55;32.80;;;7.60;99.90;;;;;;5051805;28;20054;-79
2020/12/18 03:01:21;;;;;;;95.57;37.63;;;7.60;99.90;;;;;;5058171;28;20116;-79
2020/12/18 03:03:47;;;;;;;95.80;38.17;;;7.60;99.90;;;;;;5072561;28;20024;-79
2020/12/18 03:06:13;;;;;;;92.00;36.88;;;7.60;99.90;;;;;;5064090;28;20548;-80
2020/12/18 03:08:38;;;;;;;92.18;33.80;;;7.70;99.90;;;;;;5051436;28;20035;-80
2020/12/18 03:11:04;;;;;;;79.63;35.60;;;7.70;99.90;;;;;;5053953;28;20057;-80
2020/12/18 03:13:30;;;;;;;67.35;33.15;;;7.70;99.90;;;;;;5072677;28;20103;-80
2020/12/18 03:15:56;;;;;;;74.68;34.08;;;7.70;99.90;;;;;;5072273;28;20445;-79
2020/12/18 03:18:22;;;;;;;80.00;33.88;;;7.70;99.90;;;;;;5072512;28;20028;-79
2020/12/18 03:20:48;;;;;;;74.78;34.85;;;7.70;99.90;;;;;;5067392;28;20025;-79
2020/12/18 03:23:13;;;;;;;85.60;34.17;;;7.80;99.90;;;;;;5051242;28;20072;-79
2020/12/18 03:25:39;;;;;;;105.00;35.67;;;7.80;99.90;;;;;;5052325;28;20078;-80
2020/12/18 03:28:05;;;;;;;64.82;32.03;;;7.70;99.90;;;;;;5052315;28;20485;-79
2020/12/18 03:30:30;;;;;;;63.50;30.08;;;7.70;99.90;;;;;;5051151;28;20441;-79
2020/12/18 03:32:56;;;;;;;80.63;37.33;;;7.70;99.90;;;;;;5070999;28;20477;-79
2020/12/18 03:35:22;;;;;;;79.65;35.08;;;7.70;99.90;;;;;;5070213;28;20024;-79
2020/12/18 03:37:48;;;;;;;70.60;34.92;;;7.70;99.90;;;;;;5070529;28;20020;-79
2020/12/18 03:40:16;;;;;;;86.35;36.45;;;7.80;99.90;;;;;;5071197;28;20061;-79
2020/12/18 03:42:44;;;;;;;76.75;35.50;;;7.80;99.90;;;;;;5055351;28;20028;-79
2020/12/18 03:45:10;;;;;;;85.53;34.67;;;7.80;99.90;;;;;;5051877;28;20576;-79
2020/12/18 03:47:36;;;;;;;65.45;33.95;;;7.80;99.90;;;;;;5050702;28;20136;-80
2020/12/18 03:50:02;;;;;;;84.13;36.25;;;7.80;99.90;;;;;;5050884;28;20021;-79
2020/12/18 03:52:29;;;;;;;82.28;35.70;;;7.70;99.90;;;;;;5070184;28;20489;-80
2020/12/18 03:54:54;;;;;;;85.75;38.47;;;7.80;99.90;;;;;;5070177;28;20055;-79
2020/12/18 03:57:20;;;;;;;85.85;38.03;;;7.70;99.90;;;;;;5070683;28;20060;-79
2020/12/18 03:59:46;;;;;;;87.47;39.78;;;7.70;99.90;;;;;;5070695;28;20472;-79
2020/12/18 04:02:11;;;;;;;81.32;38.78;;;7.70;99.90;;;;;;5057742;28;20516;-79
2020/12/18 04:04:37;;;;;;;93.30;37.53;;;7.70;99.90;;;;;;5050412;28;20028;-79
2020/12/18 04:07:02;;;;;;;84.68;39.63;;;7.70;99.90;;;;;;5051749;28;20033;-79
2020/12/18 04:09:28;;;;;;;100.25;43.33;;;7.70;99.90;;;;;;5050507;28;20029;-79
2020/12/18 04:11:54;;;;;;;98.65;38.75;;;7.70;99.90;;;;;;5059723;28;20059;-79
2020/12/18 04:14:19;;;;;;;95.45;42.92;;;7.70;99.90;;;;;;5070398;28;20016;-79
2020/12/18 04:16:45;;;;;;;92.28;42.35;;;7.70;99.90;;;;;;5070175;28;20025;-79
2020/12/18 04:19:10;;;;;;;99.25;43.20;;;7.70;99.90;;;;;;5071779;28;20071;-80
2020/12/18 04:21:36;;;;;;;94.88;39.80;;;7.60;99.90;;;;;;5059920;28;20147;-80
2020/12/18 04:24:01;;;;;;;88.65;41.95;;;7.60;99.90;;;;;;5051531;28;20033;-79
2020/12/18 04:26:27;;;;;;;98.38;42.05;;;7.60;99.90;;;;;;5051612;28;20149;-79
2020/12/18 04:28:53;;;;;;;90.53;41.38;;;7.60;99.90;;;;;;5051506;28;20032;-79
2020/12/18 04:31:19;;;;;;;83.72;41.75;;;7.60;99.90;;;;;;5056224;28;20111;-79
2020/12/18 04:33:44;;;;;;;88.95;41.58;;;7.60;99.90;;;;;;5070192;28;20020;-79
2020/12/18 04:36:10;;;;;;;89.32;40.55;;;7.60;99.90;;;;;;5071155;28;20370;-79
2020/12/18 04:38:36;;;;;;;97.10;41.03;;;7.60;99.90;;;;;;5071618;28;20036;-79
2020/12/18 04:41:03;;;;;;;91.85;40.78;;;7.60;99.90;;;;;;5069013;28;20512;-79
2020/12/18 04:43:28;;;;;;;109.72;44.22;;;7.60;99.90;;;;;;5052448;28;20040;-79
2020/12/18 04:45:57;;;;;;;97.57;42.35;;;7.50;99.90;;;;;;5054079;28;20024;-79
2020/12/18 04:48:26;;;;;;;89.57;41.75;;;7.50;99.90;;;;;;5055459;28;20020;-79
2020/12/18 04:50:54;;;;;;;89.28;42.30;;;7.50;99.90;;;;;;5060567;28;20017;-79
2020/12/18 04:53:28;;;;;;;86.05;40.78;;;7.50;99.90;;;;;;5073573;28;20111;-79
2020/12/18 04:55:55;;;;;;;101.68;42.35;;;7.50;99.90;;;;;;5074000;28;20395;-79
2020/12/18 04:58:24;;;;;;;90.60;41.10;;;7.50;99.90;;;;;;5073936;28;20040;-79
2020/12/18 05:00:56;;;;;;;92.22;40.53;;;7.40;99.90;;;;;;5072627;28;20028;-79
2020/12/18 05:03:21;;;;;;;92.30;40.63;;;7.40;99.90;;;;;;5053680;28;20043;-79
2020/12/18 05:05:47;;;;;;;97.43;39.28;;;7.40;99.90;;;;;;5059461;28;20516;-79
2020/12/18 05:08:13;;;;;;;83.07;36.75;;;7.40;99.90;;;;;;5074903;28;20029;-79
2020/12/18 05:10:39;;;;;;;83.00;40.22;;;7.40;99.90;;;;;;5075052;28;20032;-79
2020/12/18 05:13:05;;;;;;;85.55;38.90;;;7.40;99.90;;;;;;5056603;28;20130;-79
2020/12/18 05:15:33;;;;;;;79.90;39.33;;;7.40;99.90;;;;;;5054755;28;20017;-79
2020/12/18 05:17:59;;;;;;;80.93;38.80;;;7.40;99.90;;;;;;5054933;28;20036;-79
2020/12/18 05:20:26;;;;;;;77.88;39.22;;;7.40;99.90;;;;;;5055010;28;20508;-79
2020/12/18 05:22:53;;;;;;;77.70;38.13;;;7.30;99.90;;;;;;5054786;28;20102;-79
2020/12/18 05:25:19;;;;;;;90.38;38.45;;;7.30;99.90;;;;;;5054610;28;20393;-79
2020/12/18 05:27:44;;;;;;;94.25;41.15;;;7.30;99.90;;;;;;5053322;28;20025;-79
2020/12/18 05:30:10;;;;;;;82.35;38.70;;;7.30;99.90;;;;;;5053486;28;20025;-79
2020/12/18 05:32:36;;;;;;;90.25;39.53;;;7.30;99.90;;;;;;5071389;28;20024;-79
2020/12/18 05:35:03;;;;;;;90.00;40.97;;;7.30;99.90;;;;;;5073118;28;20119;-79
2020/12/18 05:37:39;;;;;;;89.45;40.00;;;7.30;99.90;;;;;;5074126;28;20099;-79
2020/12/18 05:40:06;;;;;;;92.18;40.22;;;7.30;99.90;;;;;;5073273;28;20055;-79
2020/12/18 05:42:49;;;;;;;82.78;38.33;;;7.30;99.90;;;;;;5060750;28;20036;-80
2020/12/18 05:45:17;;;;;;;72.18;37.20;;;7.30;99.90;;;;;;5053020;28;20074;-79
2020/12/18 05:48:00;;;;;;;79.97;36.53;;;7.30;99.90;;;;;;5054198;28;20123;-79
2020/12/18 05:50:28;;;;;;;79.22;38.63;;;7.40;99.90;;;;;;5055884;28;20016;-79
2020/12/18 05:52:58;;;;;;;100.53;40.60;;;7.30;99.90;;;;;;5072718;28;20043;-79
2020/12/18 05:55:25;;;;;;;89.60;41.22;;;7.20;99.90;;;;;;5072851;28;20032;-79
2020/12/18 05:57:52;;;;;;;79.60;40.50;;;7.30;99.90;;;;;;5074183;28;20027;-79
2020/12/18 06:00:19;;;;;;;93.07;40.70;;;7.30;99.90;;;;;;5074090;28;20021;-79
2020/12/18 06:02:48;;;;;;;92.65;40.00;;;7.30;99.90;;;;;;5055240;28;20427;-79
2020/12/18 06:05:14;;;;;;;81.80;40.20;;;7.20;99.90;;;;;;5053780;28;20078;-79
2020/12/18 06:07:40;;;;;;;88.05;37.28;;;7.30;99.90;;;;;;5053951;28;20032;-79
2020/12/18 06:10:06;;;;;;;75.47;37.63;;;7.30;99.90;;;;;;5053927;28;20021;-79
2020/12/18 06:12:32;;;;;;;76.95;36.05;;;7.30;99.90;;;;;;5072336;28;20436;-79
2020/12/18 06:14:57;;;;;;;74.93;36.63;;;7.30;99.90;;;;;;5073792;28;20032;-79
2020/12/18 06:17:35;;;;;;;82.40;37.10;;;7.30;99.90;;;;;;5073706;28;20036;-79
2020/12/18 06:20:02;;;;;;;76.70;34.92;;;7.30;99.90;;;;;;5073879;28;20503;-79
2020/12/18 06:22:28;;;;;;;61.88;33.63;;;7.30;99.90;;;;;;5055032;28;20032;-79
2020/12/18 06:24:54;;;;;;;66.45;33.70;;;7.20;99.90;;;;;;5053340;28;20029;-79
2020/12/18 06:27:19;;;;;;;62.85;34.33;;;7.20;99.90;;;;;;5052663;28;20033;-79
2020/12/18 06:29:46;;;;;;;68.50;35.83;;;7.10;99.90;;;;;;5052273;28;20029;-79
2020/12/18 06:32:26;;;;;;;59.50;31.75;;;7.10;99.90;;;;;;5066577;28;20031;-79
2020/12/18 06:35:24;;;;;;;69.93;33.47;;;7.10;99.90;;;;;;5072055;28;20385;-78
2020/12/18 06:37:49;;;;;;;75.28;33.17;;;7.10;99.90;;;;;;5072153;28;20468;-80
2020/12/18 06:40:33;;;;;;;64.50;33.88;;;7.10;99.90;;;;;;5056009;28;20037;-79
2020/12/18 06:42:59;;;;;;;68.18;32.83;;;7.00;99.90;;;;;;5052202;28;20048;-79
2020/12/18 06:45:26;;;;;;;59.08;34.40;;;7.00;99.90;;;;;;5053133;28;20024;-79
2020/12/18 06:47:52;;;;;;;62.45;35.75;;;7.00;99.90;;;;;;5051696;28;20017;-79
2020/12/18 06:50:19;;;;;;;65.45;34.40;;;7.00;99.90;;;;;;5066173;28;20029;-78
2020/12/18 06:52:52;;;;;;;68.18;33.65;;;7.00;99.90;;;;;;5071890;28;20047;-79
2020/12/18 06:55:28;;;;;;;64.78;34.10;;;7.00;99.90;;;;;;5072894;28;20017;-79
2020/12/18 06:58:08;;;;;;;64.65;33.28;;;7.00;99.90;;;;;;5073012;28;20016;-78
2020/12/18 07:00:49;;;;;;;62.45;33.17;;;6.90;99.90;;;;;;5059776;28;20071;-79
2020/12/18 07:03:39;;;;;;;69.70;34.00;;;7.00;99.90;;;;;;5056823;28;20017;-79
2020/12/18 07:06:33;;;;;;;62.92;32.40;;;6.90;99.90;;;;;;5071015;28;20020;-79
2020/12/18 07:09:01;;;;;;;69.50;34.53;;;6.90;99.90;;;;;;5071875;28;20035;-79
2020/12/18 07:11:30;;;;;;;73.20;32.40;;;6.80;99.90;;;;;;5072797;28;20162;-79
2020/12/18 07:14:00;;;;;;;59.85;31.17;;;6.90;99.90;;;;;;5064519;28;20556;-79
2020/12/18 07:16:28;;;;;;;60.15;31.45;;;6.80;99.90;;;;;;5052578;28;20029;-79
2020/12/18 07:19:03;;;;;;;59.50;31.98;;;6.80;99.90;;;;;;5051338;28;20465;-79
2020/12/18 07:21:28;;;;;;;57.78;30.08;;;6.70;99.90;;;;;;5052465;28;20040;-79
2020/12/18 07:23:54;;;;;;;54.90;28.30;;;6.70;99.90;;;;;;5052399;28;20032;-79
2020/12/18 07:26:21;;;;;;;59.40;30.52;;;6.60;99.90;;;;;;5051170;28;20025;-79
2020/12/18 07:28:47;;;;;;;52.60;29.65;;;6.50;99.90;;;;;;5052433;28;20032;-79
2020/12/18 07:31:20;;;;;;;52.15;30.60;;;6.40;99.90;;;;;;5055320;28;20024;-79
2020/12/18 07:33:47;;;;;;;53.60;30.42;;;6.40;99.90;;;;;;5072101;28;20384;-79
2020/12/18 07:36:12;;;;;;;62.50;30.85;;;6.30;99.90;;;;;;5070683;28;20059;-79
2020/12/18 07:38:38;;;;;;;64.18;30.13;;;6.20;99.90;;;;;;5071009;28;20060;-79
2020/12/18 07:41:10;;;;;;;57.08;31.23;;;6.20;99.90;;;;;;5072273;28;20021;-79
2020/12/18 07:43:37;;;;;;;60.58;32.28;;;6.20;99.90;;;;;;5052358;28;20100;-80
2020/12/18 07:46:05;;;;;;;66.90;33.35;;;6.20;99.90;;;;;;5050642;28;20028;-79
2020/12/18 07:48:33;;;;;;;66.18;33.50;;;6.20;99.90;;;;;;5052062;28;20025;-79
2020/12/18 07:51:01;;;;;;;70.47;31.63;;;6.20;99.90;;;;;;5057858;28;20100;-79
2020/12/18 07:53:28;;;;;;;72.57;32.42;;;6.10;99.90;;;;;;5072038;28;20559;-79
2020/12/18 07:56:17;;;;;;;71.40;31.50;;;6.10;99.90;;;;;;5071851;28;20473;-79
2020/12/18 07:58:54;;;;;;;57.65;31.77;;;6.10;99.90;;;;;;5070850;28;20033;-79
2020/12/18 08:01:21;;;;;;;62.30;33.33;;;6.10;99.90;;;;;;5068703;28;20571;-79
2020/12/18 08:03:56;;;;;;;70.05;31.75;;;6.10;99.90;;;;;;5058964;28;20032;-79
2020/12/18 08:06:27;;;;;;;52.28;28.60;;;6.10;99.90;;;;;;5059692;28;20028;-79
2020/12/18 08:08:59;;;;;;;59.78;29.95;;;6.10;99.90;;;;;;5071544;28;20060;-79
2020/12/18 08:11:26;;;;;;;66.38;30.27;;;6.10;99.90;;;;;;5067573;28;20021;-79
2020/12/18 08:13:53;;;;;;;58.92;30.88;;;6.10;99.90;;;;;;5051336;28;20032;-79
2020/12/18 08:16:21;;;;;;;56.28;30.52;;;6.10;99.90;;;;;;5050265;28;20025;-79
2020/12/18 08:18:51;;;;;;;53.88;27.92;;;6.10;99.90;;;;;;5049732;28;20447;-79
2020/12/18 08:21:21;;;;;;;64.00;30.17;;;6.10;99.90;;;;;;5059929;28;20548;-79
2020/12/18 08:24:09;;;;;;;60.55;28.90;;;6.10;99.90;;;;;;5071404;28;20492;-78
2020/12/18 08:26:42;;;;;;;61.40;30.08;;;6.00;99.90;;;;;;5071480;28;20024;-79
2020/12/18 08:29:08;;;;;;;52.45;29.42;;;6.00;99.90;;;;;;5070343;28;20115;-79
2020/12/18 08:31:42;;;;;;;56.17;28.23;;;6.00;99.90;;;;;;5068797;28;20028;-79
2020/12/18 08:34:14;;;;;;;53.25;28.35;;;6.00;99.90;;;;;;5071400;28;20025;-79
2020/12/18 08:36:45;;;;;;;60.72;28.95;;;6.00;99.90;;;;;;5069871;28;20173;-79
2020/12/18 08:39:13;;;;;;;58.47;31.30;;;6.00;99.90;;;;;;5070362;28;20028;-79
2020/12/18 08:41:40;;;;;;;51.42;28.27;;;6.00;99.90;;;;;;5069223;28;20111;-79
2020/12/18 08:44:22;;;;;;;59.67;28.42;;;6.10;99.90;;;;;;5069938;28;20024;-79
2020/12/18 08:46:48;;;;;;;67.43;30.58;;;6.00;99.90;;;;;;5065924;28;20031;-79
2020/12/18 08:49:25;;;;;;;49.78;28.27;;;6.00;99.90;;;;;;5054090;28;20021;-79
2020/12/18 08:51:52;;;;;;;57.53;29.85;;;6.00;99.90;;;;;;5050220;28;20064;-79
2020/12/18 08:54:31;;;;;;;68.72;29.98;;;5.90;99.90;;;;;;5050931;28;20029;-79
2020/12/18 08:57:15;;;;;;;70.35;29.70;;;6.00;99.90;;;;;;5050013;28;20025;-79
2020/12/18 09:00:11;;;;;;;59.28;29.70;;;5.90;99.90;;;;;;5060050;28;20028;-79
2020/12/18 09:02:39;;;;;;;57.75;29.65;;;6.00;99.90;;;;;;5070913;28;20059;-79
2020/12/18 09:05:26;;;;;;;56.88;30.25;;;6.10;99.90;;;;;;5055175;28;20086;-78
2020/12/18 09:07:55;;;;;;;53.45;30.30;;;6.10;99.90;;;;;;5049874;28;20033;-79
2020/12/18 09:10:40;;;;;;;61.60;29.98;;;6.20;99.90;;;;;;5055877;28;20017;-78
2020/12/18 09:13:26;;;;;;;58.95;31.92;;;6.20;99.90;;;;;;5059311;28;20029;-79
2020/12/18 09:16:00;;;;;;;58.42;30.08;;;6.30;99.90;;;;;;5053806;28;20021;-79
2020/12/18 09:18:28;;;;;;;56.90;30.33;;;6.20;99.90;;;;;;5068505;28;20064;-79
2020/12/18 09:20:54;;;;;;;58.80;29.95;;;6.30;99.90;;;;;;5069295;28;20027;-79
2020/12/18 09:23:31;;;;;;;60.45;30.30;;;6.30;99.90;;;;;;5071178;28;20036;-80
2020/12/18 09:26:01;;;;;;;52.22;31.88;;;6.40;99.90;;;;;;5070834;28;20059;-79
2020/12/18 09:28:33;;;;;;;65.25;34.30;;;6.40;99.90;;;;;;5069211;28;20115;-79
2020/12/18 09:30:58;;;;;;;66.47;31.73;;;6.40;99.90;;;;;;5072558;28;20481;-79
2020/12/18 09:33:32;;;;;;;58.60;33.58;;;6.50;99.90;;;;;;5072683;28;20059;-79
2020/12/18 09:35:59;;;;;;;;;;;6.60;99.90;;;;;;5073482;28;20022;-79
2020/12/18 09:38:26;;;;;;;55.63;32.85;;;6.60;99.90;;;;;;5055381;28;19916;-79
2020/12/18 09:40:52;;;;;;;70.40;31.92;;;6.70;99.90;;;;;;5053202;28;20032;-79
2020/12/18 09:43:18;;;;;;;55.92;30.58;;;6.80;99.90;;;;;;5054424;28;20499;-79
2020/12/18 09:45:44;;;;;;;60.13;29.15;;;7.00;99.90;;;;;;5054214;28;20107;-79
2020/12/18 09:48:10;;;;;;;60.25;30.08;;;7.10;99.90;;;;;;5066069;28;20040;-79
2020/12/18 09:50:35;;;;;;;52.88;30.58;;;7.00;99.90;;;;;;5074322;28;20020;-79
2020/12/18 09:53:01;;;;;;;48.78;28.88;;;7.10;99.90;;;;;;5074199;28;20017;-79
2020/12/18 09:55:27;;;;;;;52.75;28.80;;;7.20;99.90;;;;;;5072804;28;20033;-79
2020/12/18 09:57:52;;;;;;;52.35;29.23;;;7.20;99.90;;;;;;5066468;28;20520;-81
2020/12/18 10:00:18;;;;;;;51.67;28.52;;;7.40;99.90;;;;;;5053976;28;20118;-79
2020/12/18 10:02:43;;;;;;;59.72;28.50;;;7.30;99.90;;;;;;5052582;28;20025;-79
2020/12/18 10:05:09;;;;;;;52.47;27.58;;;7.40;99.90;;;;;;5052525;28;20021;-79
2020/12/18 10:07:34;;;;;;;53.33;27.10;;;7.40;99.90;;;;;;5055828;28;20025;-78
2020/12/18 10:10:00;;;;;;;52.50;26.90;;;7.50;99.90;;;;;;5072363;28;20024;-80
2020/12/18 10:12:26;;;;;;;45.17;25.20;;;7.60;99.90;;;;;;5073337;28;20048;-79
2020/12/18 10:14:51;;;;;;;38.92;24.00;;;7.60;99.90;;;;;;5073696;28;20029;-80
2020/12/18 10:17:17;;;;;;;46.45;23.83;;;7.60;99.90;;;;;;5072097;28;20025;-79
2020/12/18 10:19:43;;;;;;;41.22;22.52;;;7.60;99.90;;;;;;5052449;28;20040;-79
2020/12/18 10:22:08;;;;;;;40.88;21.10;;;7.60;99.90;;;;;;5052803;28;20033;-81
2020/12/18 10:24:34;;;;;;;48.17;21.58;;;7.60;99.90;;;;;;5052217;28;20029;-80
2020/12/18 10:27:00;;;;;;;43.75;22.63;;;7.60;99.90;;;;;;5052078;28;20025;-80
2020/12/18 10:29:26;;;;;;;42.00;21.77;;;7.60;99.90;;;;;;5067012;28;20069;-80
2020/12/18 10:31:53;;;;;;;34.05;21.17;;;7.60;99.90;;;;;;5073585;28;20074;-83
2020/12/18 10:34:19;;;;;;;38.47;19.98;;;7.60;99.90;;;;;;5071441;28;20031;-80
2020/12/18 10:36:49;;;;;;;40.47;21.27;;;7.60;99.90;;;;;;5059029;28;20021;-84
2020/12/18 10:39:14;;;;;;;42.05;21.08;;;7.70;99.90;;;;;;5061682;28;20074;-81
2020/12/18 10:41:40;;;;;;;36.10;19.65;;;7.70;99.90;;;;;;5063738;28;20024;-80
2020/12/18 10:44:05;;;;;;;38.65;20.13;;;7.80;99.90;;;;;;5055151;28;20029;-80
2020/12/18 10:46:32;;;;;;;43.45;20.63;;;7.90;99.90;;;;;;5071947;28;20059;-82
2020/12/18 10:48:57;;;;;;;33.40;18.27;;;8.00;99.90;;;;;;5073148;28;20027;-81
2020/12/18 10:51:23;;;;;;;33.45;18.25;;;8.00;99.90;;;;;;5072053;28;20384;-80
2020/12/18 10:53:48;;;;;;;33.85;18.42;;;8.00;99.90;;;;;;5065447;28;20111;-80
2020/12/18 10:56:14;;;;;;;29.30;17.10;;;7.90;99.90;;;;;;5052618;28;20025;-80
2020/12/18 10:58:39;;;;;;;43.38;19.20;;;8.00;99.90;;;;;;5053010;28;20029;-80
2020/12/18 11:01:05;;;;;;;35.90;18.58;;;8.20;99.90;;;;;;5051773;28;20036;-80
2020/12/18 11:03:30;;;;;;;32.50;16.05;;;8.10;99.90;;;;;;5051564;28;20115;-80
2020/12/18 11:05:56;;;;;;;41.67;18.15;;;8.10;99.90;;;;;;5051549;28;20070;-80
2020/12/18 11:08:22;;;;;;;44.63;17.17;;;8.10;99.90;;;;;;5051517;28;20032;-80
2020/12/18 11:10:47;;;;;;;32.80;17.08;;;8.10;99.90;;;;;;5051401;28;20075;-80
2020/12/18 11:13:13;;;;;;;41.15;17.70;;;8.10;99.90;;;;;;5051530;28;20460;-80
2020/12/18 11:15:38;;;;;;;33.95;18.67;;;8.00;99.90;;;;;;5052478;28;20021;-80
2020/12/18 11:18:04;;;;;;;31.23;16.75;;;7.90;99.90;;;;;;5051271;28;20507;-80
2020/12/18 11:20:29;;;;;;;38.38;18.33;;;7.90;99.90;;;;;;5051503;28;20023;-80
2020/12/18 11:22:55;;;;;;;38.40;18.88;;;8.00;99.90;;;;;;5052550;28;20057;-80
2020/12/18 11:25:20;;;;;;;33.15;16.80;;;8.10;99.90;;;;;;5051003;28;20143;-79
2020/12/18 11:27:46;;;;;;;34.08;15.68;;;8.20;99.90;;;;;;5052632;28;20025;-79
2020/12/18 11:30:12;;;;;;;33.72;16.17;;;8.20;99.90;;;;;;5058964;28;20108;-79
2020/12/18 11:32:37;;;;;;;37.00;15.77;;;8.20;99.90;;;;;;5071186;28;20488;-79
2020/12/18 11:35:03;;;;;;;34.35;16.50;;;8.30;99.90;;;;;;5072035;28;20096;-78
2020/12/18 11:37:29;;;;;;;30.00;14.40;;;8.30;99.90;;;;;;5070982;28;20016;-78
2020/12/18 11:39:54;;;;;;;29.98;14.75;;;8.50;99.90;;;;;;5072088;28;20028;-78
2020/12/18 11:42:21;;;;;;;33.67;14.25;;;8.70;99.90;;;;;;5072218;28;20107;-78
2020/12/18 11:44:47;;;;;;;22.35;13.57;;;8.70;99.90;;;;;;5072143;28;20073;-78
2020/12/18 11:47:12;;;;;;;32.80;14.38;;;8.80;99.90;;;;;;5072097;28;20494;-78
2020/12/18 11:49:38;;;;;;;37.45;13.05;;;8.80;99.90;;;;;;5067475;28;20035;-78
2020/12/18 11:52:04;;;;;;;26.05;13.23;;;8.80;99.90;;;;;;5070711;28;20523;-78
2020/12/18 11:54:30;;;;;;;30.75;14.05;;;8.90;99.90;;;;;;5071049;28;20154;-82
2020/12/18 11:56:55;;;;;;;25.00;11.63;;;8.90;99.90;;;;;;5053730;28;20108;-78
2020/12/18 11:59:21;;;;;;;28.15;12.00;;;8.80;99.90;;;;;;5049720;28;20032;-79
2020/12/18 12:01:46;;;;;;;23.92;12.02;;;8.80;99.90;;;;;;5063055;28;20031;-79
2020/12/18 12:04:12;;;;;;;22.23;11.60;;;8.70;99.90;;;;;;5058735;28;20108;-80
2020/12/18 12:06:38;;;;;;;25.73;11.07;;;8.60;99.90;;;;;;5069732;28;20034;-79
2020/12/18 12:09:03;;;;;;;21.38;11.43;;;8.50;99.90;;;;;;5069498;28;20052;-79
2020/12/18 12:11:37;;;;;;;30.17;12.45;;;8.50;99.90;;;;;;5051952;28;20385;-80
2020/12/18 12:14:03;;;;;;;27.85;12.07;;;8.60;99.90;;;;;;5065767;28;20020;-80
2020/12/18 12:16:33;;;;;;;21.25;11.48;;;8.50;99.90;;;;;;5091279;28;20032;-80
2020/12/18 12:18:58;;;;;;;26.52;11.40;;;8.60;99.90;;;;;;5070366;28;20063;-79
2020/12/18 12:21:32;;;;;;;28.98;12.00;;;8.40;99.90;;;;;;5069665;28;20060;-80
2020/12/18 12:23:58;;;;;;;25.33;12.48;;;8.60;99.90;;;;;;5069261;28;20496;-79
2020/12/18 12:26:23;;;;;;;21.40;9.65;;;8.50;99.90;;;;;;5070615;28;20036;-79
2020/12/18 12:28:49;;;;;;;22.65;10.48;;;8.50;99.90;;;;;;5060414;28;20079;-83
2020/12/18 12:31:14;;;;;;;24.42;10.48;;;8.60;99.90;;;;;;5051096;28;20025;-79
2020/12/18 12:33:40;;;;;;;23.38;9.80;;;8.70;99.90;;;;;;5051494;28;20029;-79
2020/12/18 12:36:05;;;;;;;22.40;9.52;;;8.80;99.90;;;;;;5065879;28;20488;-78
2020/12/18 12:38:31;;;;;;;21.00;8.80;;;8.90;99.90;;;;;;5071377;28;20036;-78
2020/12/18 12:40:57;;;;;;;21.33;10.43;;;9.20;99.90;;;;;;5070370;28;20065;-78